Time;durP1;ratioP1;P1;durP2;ratioP2;P2;SDS_P1;SDS_P2;PMS_P1;PMS_P2;Temp;Humidity;BMP_temperature;BMP_pressure;BME280_temperature;BME280_humidity;BME280_pressure;Samples;Min_cycle;Max_cycle;Signal;HPM_P1;HPM_P2
2022/06/07 00:00:23;;;;;;;;;;;;;;;12.69;100.00;101222.31;2611645;36;19981;-61
2022/06/07 00:02:51;;;;;;;;;;;;;;;12.67;100.00;101213.47;2613328;36;19978;-57
2022/06/07 00:05:20;;;;;;;;;;;;;;;12.71;100.00;101212.22;2613460;36;20351;-58
2022/06/07 00:07:49;;;;;;;;;;;;;;;12.80;100.00;101213.22;2613143;36;19960;-58
2022/06/07 00:10:19;;;;;;;;;;;;;;;12.76;100.00;101220.75;2611821;36;20074;-58
2022/06/07 00:12:48;;;;;;;;;;;;;;;12.76;100.00;101209.06;2613926;36;19947;-63
2022/06/07 00:15:16;;;;;;;;;;;;;;;12.84;100.00;101219.16;2612682;36;20440;-60
2022/06/07 00:17:44;;;;;;;;;;;;;;;12.90;100.00;101215.91;2613967;36;19961;-58
2022/06/07 00:20:13;;;;;;;;;;;;;;;12.90;100.00;101214.06;2614030;36;19965;-59
2022/06/07 00:22:41;;;;;;;;;;;;;;;12.96;100.00;101216.19;2612767;36;20345;-58
2022/06/07 00:25:11;;;;;;;;;;;;;;;12.89;100.00;101214.19;2613111;36;19955;-63
2022/06/07 00:30:21;;;;;;;;;;;;;;;12.91;100.00;101207.66;2615427;36;20009;-58
2022/06/07 00:32:49;;;;;;;;;;;;;;;12.91;100.00;101207.66;2614137;36;19951;-60
2022/06/07 00:35:17;;;;;;;;;;;;;;;12.85;100.00;101196.56;2614043;36;19950;-59
2022/06/07 00:37:47;;;;;;;;;;;;;;;12.89;100.00;101204.25;2617347;36;19961;-58
2022/06/07 00:42:42;;;;;;;;;;;;;;;12.87;100.00;101195.44;2612945;36;19950;-58
2022/06/07 00:45:13;;;;;;;;;;;;;;;12.85;100.00;101191.16;2613339;54;19959;-60
2022/06/07 00:47:46;;;;;;;;;;;;;;;12.89;100.00;101179.94;2619899;36;20387;-60
2022/06/07 00:50:18;;;;;;;;;;;;;;;12.90;100.00;101184.34;2614658;31;20368;-59
2022/06/07 00:52:48;;;;;;;;;;;;;;;12.93;100.00;101177.81;2615299;36;19961;-62
2022/06/07 00:55:17;;;;;;;;;;;;;;;12.92;100.00;101178.78;2613971;36;20748;-59
2022/06/07 00:57:45;;;;;;;;;;;;;;;12.99;100.00;101181.78;2613983;36;19954;-62
2022/06/07 01:00:15;;;;;;;;;;;;;;;12.91;100.00;101185.19;2613972;36;20448;-57
2022/06/07 01:02:45;;;;;;;;;;;;;;;12.93;100.00;101183.22;2613308;36;19951;-58
2022/06/07 01:05:13;;;;;;;;;;;;;;;12.97;100.00;101180.06;2612007;36;19950;-58
2022/06/07 01:13:11;;;;;;;;;;;;;;;13.04;100.00;101176.78;2613753;36;20456;-58
2022/06/07 01:15:40;;;;;;;;;;;;;;;12.96;100.00;101169.41;2612531;47;19946;-58
2022/06/07 01:20:50;;;;;;;;;;;;;;;12.97;100.00;101171.97;2612662;36;21175;-58
2022/06/07 01:23:22;;;;;;;;;;;;;;;12.92;100.00;101165.28;2612094;36;19954;-58
2022/06/07 01:25:50;;;;;;;;;;;;;;;12.86;100.00;101158.59;2613817;36;19951;-59
2022/06/07 01:31:00;;;;;;;;;;;;;;;12.90;100.00;101157.31;2614020;36;20062;-59
2022/06/07 01:33:29;;;;;;;;;;;;;;;12.99;100.00;101158.31;2614135;36;20046;-62
2022/06/07 01:44:04;;;;;;;;;;;;;;;12.94;100.00;101147.94;2618127;36;20045;-61
2022/06/07 01:46:32;;;;;;;;;;;;;;;12.95;100.00;101152.31;2613300;36;19947;-62
2022/06/07 01:49:00;;;;;;;;;;;;;;;12.93;100.00;101151.63;2613654;36;19958;-59
2022/06/07 01:51:28;;;;;;;;;;;;;;;12.92;100.00;101149.06;2613530;36;19981;-60
2022/06/07 01:56:28;;;;;;;;;;;;;;;12.90;100.00;101138.41;2613019;36;20041;-59
2022/06/07 01:58:57;;;;;;;;;;;;;;;12.93;100.00;101140.81;2625759;36;19946;-59
2022/06/07 02:01:27;;;;;;;;;;;;;;;12.93;100.00;101132.72;2618090;36;19947;-59
2022/06/07 02:03:55;;;;;;;;;;;;;;;12.86;100.00;101136.16;2613983;36;19985;-61
2022/06/07 02:06:23;;;;;;;;;;;;;;;12.93;100.00;101138.13;2618558;36;21884;-63
2022/06/07 02:11:35;;;;;;;;;;;;;;;12.89;100.00;101136.69;2613118;36;19954;-58
2022/06/07 02:16:38;;;;;;;;;;;;;;;12.86;100.00;101139.69;2617306;32;19953;-59
2022/06/07 02:19:06;;;;;;;;;;;;;;;12.87;100.00;101136.00;2615988;36;19974;-59
2022/06/07 02:21:34;;;;;;;;;;;;;;;12.94;100.00;101129.03;2613330;36;20488;-62
2022/06/07 02:24:04;;;;;;;;;;;;;;;12.90;100.00;101130.31;2612507;36;19977;-64
2022/06/07 02:26:37;;;;;;;;;;;;;;;12.86;100.00;101123.50;2613061;36;19973;-59
2022/06/07 02:29:08;;;;;;;;;;;;;;;12.80;100.00;101138.41;2612865;36;19958;-61
2022/06/07 02:31:36;;;;;;;;;;;;;;;12.74;100.00;101135.47;2614458;36;20383;-59
2022/06/07 02:34:06;;;;;;;;;;;;;;;12.80;100.00;101129.47;2613325;36;19974;-61
2022/06/07 02:39:24;;;;;;;;;;;;;;;12.78;100.00;101126.06;2613523;36;19951;-58
2022/06/07 02:44:44;;;;;;;;;;;;;;;12.78;100.00;101129.63;2632428;36;19953;-60
2022/06/07 02:47:13;;;;;;;;;;;;;;;12.79;100.00;101127.75;2614197;36;20466;-63
2022/06/07 02:49:41;;;;;;;;;;;;;;;12.70;100.00;101128.63;2612958;36;19955;-65
2022/06/07 02:52:10;;;;;;;;;;;;;;;12.61;100.00;101125.78;2613337;36;19977;-60
2022/06/07 02:54:38;;;;;;;;;;;;;;;12.65;100.00;101125.50;2612828;36;20026;-59
2022/06/07 02:57:06;;;;;;;;;;;;;;;12.70;100.00;101120.53;2613507;36;19950;-59
2022/06/07 03:02:05;;;;;;;;;;;;;;;12.70;100.00;101115.13;2612236;36;20348;-59
2022/06/07 03:04:33;;;;;;;;;;;;;;;12.66;100.00;101114.56;2613790;36;20463;-63
2022/06/07 03:07:03;;;;;;;;;;;;;;;12.63;100.00;101117.53;2613589;36;19946;-59
2022/06/07 03:09:31;;;;;;;;;;;;;;;12.65;100.00;101112.00;2613253;36;20038;-59
2022/06/07 03:15:08;;;;;;;;;;;;;;;12.72;100.00;101115.81;2613359;36;19970;-64
2022/06/07 03:17:40;;;;;;;;;;;;;;;12.85;100.00;101118.22;2614546;36;20036;-59
2022/06/07 03:20:09;;;;;;;;;;;;;;;12.83;100.00;101118.38;2613710;36;19947;-58
2022/06/07 03:22:48;;;;;;;;;;;;;;;12.92;100.00;101112.09;2614745;39;20613;31
2022/06/07 03:25:16;;;;;;;;;;;;;;;12.90;100.00;101124.06;2611624;36;19959;-64
2022/06/07 03:27:45;;;;;;;;;;;;;;;12.97;100.00;101123.34;2613444;36;19950;-62
2022/06/07 03:30:14;;;;;;;;;;;;;;;12.94;100.00;101123.63;2612534;36;20441;-59
2022/06/07 03:37:47;;;;;;;;;;;;;;;12.86;100.00;101126.19;2612320;54;19946;-60
2022/06/07 03:40:42;;;;;;;;;;;;;;;12.83;100.00;101109.44;2613241;36;20332;-62
2022/06/07 03:43:05;;;;;;;;;;;;;;;12.93;100.00;101121.06;2613291;36;19966;-59
2022/06/07 03:45:33;;;;;;;;;;;;;;;12.90;100.00;101122.22;2613689;36;19947;-60
2022/06/07 03:48:02;;;;;;;;;;;;;;;12.91;100.00;101115.81;2614304;36;20040;-59
2022/06/07 03:50:30;;;;;;;;;;;;;;;12.92;100.00;101117.50;2613886;31;19953;-63
2022/06/07 03:53:00;;;;;;;;;;;;;;;12.97;100.00;101120.63;2613057;36;19954;-59
2022/06/07 03:55:28;;;;;;;;;;;;;;;13.06;100.00;101112.63;2613199;36;19954;-58
2022/06/07 03:57:57;;;;;;;;;;;;;;;13.10;100.00;101104.13;2612885;36;19975;-59
2022/06/07 04:00:25;;;;;;;;;;;;;;;13.05;100.00;101110.94;2613181;36;19970;-62
2022/06/07 04:02:53;;;;;;;;;;;;;;;13.11;100.00;101115.75;2612350;36;19954;-60
2022/06/07 04:05:21;;;;;;;;;;;;;;;13.07;100.00;101115.22;2613780;36;19958;-59
2022/06/07 04:10:32;;;;;;;;;;;;;;;13.01;100.00;101114.94;2612598;31;19950;-60
2022/06/07 04:13:01;;;;;;;;;;;;;;;13.05;100.00;101116.34;2613202;36;19953;-59
2022/06/07 04:15:29;;;;;;;;;;;;;;;13.05;100.00;101113.66;2612309;36;19993;-59
2022/06/07 04:17:59;;;;;;;;;;;;;;;13.05;100.00;101124.47;2612360;36;19947;-63
2022/06/07 04:20:27;;;;;;;;;;;;;;;13.14;100.00;101121.72;2613122;36;20321;-59
2022/06/07 04:22:55;;;;;;;;;;;;;;;13.17;100.00;101119.72;2612370;36;19958;-61
2022/06/07 04:25:23;;;;;;;;;;;;;;;13.24;100.00;101123.56;2611920;36;19981;-61
2022/06/07 04:27:54;;;;;;;;;;;;;;;13.17;100.00;101117.88;2612875;36;19958;-60
2022/06/07 04:30:22;;;;;;;;;;;;;;;13.09;100.00;101115.06;2612086;36;20389;-59
2022/06/07 04:32:50;;;;;;;;;;;;;;;13.23;100.00;101114.56;2611118;36;19951;-59
2022/06/07 04:35:19;;;;;;;;;;;;;;;13.29;100.00;101111.31;2612658;36;20331;-60
2022/06/07 04:37:48;;;;;;;;;;;;;;;13.46;100.00;101117.81;2613176;36;19980;-61
2022/06/07 04:40:17;;;;;;;;;;;;;;;13.47;100.00;101113.22;2611116;36;19947;-59
2022/06/07 04:42:45;;;;;;;;;;;;;;;13.71;100.00;101114.56;2613681;36;19981;-59
2022/06/07 04:45:20;;;;;;;;;;;;;;;13.60;100.00;101119.19;2612650;36;20030;-59
2022/06/07 04:50:23;;;;;;;;;;;;;;;13.63;100.00;101120.72;2612420;36;19950;-59
2022/06/07 04:52:51;;;;;;;;;;;;;;;13.66;100.00;101117.72;2611845;36;19954;-59
2022/06/07 04:55:20;;;;;;;;;;;;;;;13.60;100.00;101123.72;2611392;36;20377;-59
2022/06/07 04:57:48;;;;;;;;;;;;;;;13.64;100.00;101123.25;2615147;36;20421;-60
2022/06/07 05:00:18;;;;;;;;;;;;;;;13.61;100.00;101126.28;2614108;31;20360;-59
2022/06/07 05:02:49;;;;;;;;;;;;;;;13.52;100.00;101129.88;2617351;36;20077;-59
2022/06/07 05:05:18;;;;;;;;;;;;;;;13.54;100.00;101127.03;2617314;36;19950;-59
2022/06/07 05:07:46;;;;;;;;;;;;;;;13.69;100.00;101135.50;2613349;36;19950;-66
2022/06/07 05:10:17;;;;;;;;;;;;;;;13.62;100.00;101135.25;2609037;36;19974;-62
2022/06/07 05:12:45;;;;;;;;;;;;;;;13.66;100.00;101137.50;2611184;36;19993;-59
2022/06/07 05:15:14;;;;;;;;;;;;;;;13.76;100.00;101134.75;2601166;36;19955;-59
2022/06/07 05:20:20;;;;;;;;;;;;;;;13.71;100.00;101134.34;2614037;36;20464;-64
2022/06/07 05:22:48;;;;;;;;;;;;;;;13.49;100.00;101132.88;2613801;36;19950;-60
2022/06/07 05:25:16;;;;;;;;;;;;;;;13.63;100.00;101126.13;2609590;36;19973;-60
2022/06/07 05:27:47;;;;;;;;;;;;;;;13.76;100.00;101128.50;2611563;36;19993;-59
2022/06/07 05:30:16;;;;;;;;;;;;;;;13.87;100.00;101135.53;2612443;36;19947;-60
2022/06/07 05:32:45;;;;;;;;;;;;;;;13.98;100.00;101130.78;2612480;36;20462;-59
2022/06/07 05:35:22;;;;;;;;;;;;;;;13.93;100.00;101138.50;2612269;54;19954;-60
2022/06/07 05:37:53;;;;;;;;;;;;;;;14.13;100.00;101125.72;2618091;36;20530;-63
2022/06/07 05:40:21;;;;;;;;;;;;;;;14.26;100.00;101138.00;2613087;31;19957;-59
2022/06/07 05:42:49;;;;;;;;;;;;;;;14.55;100.00;101141.34;2612627;36;19961;-60
2022/06/07 05:45:17;;;;;;;;;;;;;;;14.60;100.00;101123.78;2612120;36;19958;-59
2022/06/07 05:50:18;;;;;;;;;;;;;;;14.86;100.00;101129.28;2612924;36;20030;-60
2022/06/07 06:03:15;;;;;;;;;;;;;;;14.60;100.00;101129.19;2613651;54;19949;-61
2022/06/07 06:05:46;;;;;;;;;;;;;;;14.66;100.00;101140.31;2612595;36;19950;-64
2022/06/07 06:11:04;;;;;;;;;;;;;;;14.61;100.00;101137.19;2612323;36;20046;-60
2022/06/07 06:13:35;;;;;;;;;;;;;;;15.00;100.00;101128.72;2613099;54;19951;-60
2022/06/07 06:16:04;;;;;;;;;;;;;;;15.24;100.00;101132.59;2612950;36;20585;-60
2022/06/07 06:18:34;;;;;;;;;;;;;;;15.19;100.00;101127.66;2612708;36;19953;-61
2022/06/07 06:26:30;;;;;;;;;;;;;;;15.83;100.00;101127.31;2631677;36;19980;-60
2022/06/07 06:28:58;;;;;;;;;;;;;;;16.02;100.00;101126.19;2613573;36;19978;-60
2022/06/07 06:31:27;;;;;;;;;;;;;;;16.34;100.00;101119.13;2613432;36;19953;-60
2022/06/07 06:33:57;;;;;;;;;;;;;;;16.11;100.00;101113.47;2612712;36;19958;-64
2022/06/07 06:38:52;;;;;;;;;;;;;;;16.06;100.00;101116.69;2614351;36;19957;-60
2022/06/07 06:46:26;;;;;;;;;;;;;;;16.09;100.00;101126.34;2612067;36;19998;-60
2022/06/07 06:48:54;;;;;;;;;;;;;;;15.87;100.00;101133.25;2613504;36;19954;-64
2022/06/07 06:59:27;;;;;;;;;;;;;;;15.64;100.00;101120.25;2615443;54;19962;-59
2022/06/07 07:04:37;;;;;;;;;;;;;;;15.85;100.00;101136.13;2612133;36;20428;-60
2022/06/07 07:07:06;;;;;;;;;;;;;;;16.09;100.00;101140.81;2611665;31;20444;-61
2022/06/07 07:12:07;;;;;;;;;;;;;;;15.79;100.00;101147.63;2612634;36;19942;-60
2022/06/07 07:17:15;;;;;;;;;;;;;;;15.27;100.00;101153.09;2612727;39;20316;-61
2022/06/07 07:30:01;;;;;;;;;;;;;;;15.49;100.00;101162.53;2611556;36;20048;-67
2022/06/07 07:32:29;;;;;;;;;;;;;;;15.67;100.00;101165.22;2615964;36;20609;-62
2022/06/07 07:34:58;;;;;;;;;;;;;;;15.48;100.00;101161.69;2611721;47;19977;-61
2022/06/07 07:37:26;;;;;;;;;;;;;;;15.68;100.00;101161.47;2612966;54;20380;-60
2022/06/07 07:39:56;;;;;;;;;;;;;;;15.81;100.00;101152.91;2612455;36;19958;-65
2022/06/07 07:42:29;;;;;;;;;;;;;;;15.83;100.00;101153.59;2613187;36;19957;-59
2022/06/07 07:47:41;;;;;;;;;;;;;;;15.66;100.00;101158.91;2611690;36;19978;-60
2022/06/07 07:52:35;;;;;;;;;;;;;;;15.46;100.00;101162.88;2612033;39;20364;-63
2022/06/07 07:55:11;;;;;;;;;;;;;;;15.59;100.00;101160.56;2612197;36;19978;-62
2022/06/07 08:02:43;;;;;;;;;;;;;;;16.06;100.00;101170.13;2611995;36;20421;-62
2022/06/07 08:05:12;;;;;;;;;;;;;;;16.51;100.00;101168.03;2612042;54;21232;-61
2022/06/07 08:07:40;;;;;;;;;;;;;;;16.21;100.00;101154.91;2613002;36;20192;-61
2022/06/07 08:10:09;;;;;;;;;;;;;;;16.37;100.00;101167.69;2610893;36;19957;-62
2022/06/07 08:12:38;;;;;;;;;;;;;;;16.55;100.00;101159.38;2613542;39;20332;-62
2022/06/07 08:15:09;;;;;;;;;;;;;;;16.54;100.00;101168.53;2612027;54;19954;-62
2022/06/07 08:20:23;;;;;;;;;;;;;;;17.10;100.00;101166.03;2613064;36;20463;-61
2022/06/07 08:25:30;;;;;;;;;;;;;;;16.69;100.00;101166.00;2616693;36;20428;-59
2022/06/07 08:27:59;;;;;;;;;;;;;;;16.72;100.00;101171.09;2614892;36;19950;-59
2022/06/07 08:30:28;;;;;;;;;;;;;;;16.91;100.00;101169.94;2616365;36;19953;-61
2022/06/07 08:38:23;;;;;;;;;;;;;;;16.58;100.00;101178.06;2615362;36;19950;-59
2022/06/07 08:40:52;;;;;;;;;;;;;;;16.60;100.00;101177.91;2613816;54;19947;-61
2022/06/07 08:43:23;;;;;;;;;;;;;;;16.58;100.00;101171.78;2613571;36;19950;-63
2022/06/07 08:51:16;;;;;;;;;;;;;;;17.09;100.00;101171.66;2614216;31;20511;-64
2022/06/07 08:53:48;;;;;;;;;;;;;;;17.10;100.00;101174.19;2614026;36;20703;-61
2022/06/07 08:58:47;;;;;;;;;;;;;;;17.37;100.00;101174.84;2614460;54;20022;-63
2022/06/07 09:01:22;;;;;;;;;;;;;;;17.03;100.00;101183.22;2614230;36;19979;-62
2022/06/07 09:03:59;;;;;;;;;;;;;;;17.47;100.00;101183.66;2614183;36;19957;-65
2022/06/07 09:06:28;;;;;;;;;;;;;;;17.78;100.00;101176.59;2613576;31;20478;-65
2022/06/07 09:09:00;;;;;;;;;;;;;;;17.27;100.00;101187.78;2613056;36;20451;-63
2022/06/07 09:14:11;;;;;;;;;;;;;;;17.08;100.00;101187.13;2612375;36;20348;-60
2022/06/07 09:16:40;;;;;;;;;;;;;;;17.01;100.00;101183.38;2613129;54;20013;-60
2022/06/07 09:19:12;;;;;;;;;;;;;;;17.19;100.00;101191.34;2612470;36;19950;-62
2022/06/07 09:21:42;;;;;;;;;;;;;;;17.33;100.00;101187.94;2613949;36;19958;-62
2022/06/07 09:24:30;;;;;;;;;;;;;;;17.31;100.00;101183.69;2614441;36;20350;-61
2022/06/07 09:27:06;;;;;;;;;;;;;;;17.45;100.00;101184.88;2610783;36;20014;-61
2022/06/07 09:29:38;;;;;;;;;;;;;;;16.97;100.00;101195.63;2613915;39;20337;-61
2022/06/07 09:39:38;;;;;;;;;;;;;;;17.88;100.00;101184.56;2615844;39;20660;-60
2022/06/07 09:42:13;;;;;;;;;;;;;;;17.55;100.00;101185.53;2611741;36;19970;-62
2022/06/07 09:47:25;;;;;;;;;;;;;;;17.65;100.00;101196.19;2612954;54;21685;-61
2022/06/07 09:49:57;;;;;;;;;;;;;;;18.02;100.00;101181.13;2611844;36;19947;-61
2022/06/07 10:02:28;;;;;;;;;;;;;;;18.37;100.00;101195.25;2612847;54;19966;-63
2022/06/07 10:17:41;;;;;;;;;;;;;;;19.05;100.00;101187.28;2613025;54;19954;-59
2022/06/07 10:32:58;;;;;;;;;;;;;;;19.89;100.00;101176.19;2615632;36;19953;-63
2022/06/07 11:15:39;;;;;;;;;;;;;;;20.37;100.00;101161.19;2612382;47;19992;-62
2022/06/07 11:33:03;;;;;;;;;;;;;;;20.71;100.00;101167.88;2612819;54;19975;-59
2022/06/07 11:35:47;;;;;;;;;;;;;;;20.20;100.00;101166.91;2613453;36;19985;-66
2022/06/07 11:38:24;;;;;;;;;;;;;;;19.99;100.00;101170.41;2613898;36;20360;-61
2022/06/07 11:46:04;;;;;;;;;;;;;;;20.78;100.00;101171.53;2613003;36;19949;-61
2022/06/07 11:48:40;;;;;;;;;;;;;;;20.63;100.00;101168.84;2613065;54;19954;-61
2022/06/07 11:51:15;;;;;;;;;;;;;;;20.28;100.00;101174.97;2616107;36;19957;-60
2022/06/07 11:56:25;;;;;;;;;;;;;;;20.17;100.00;101172.75;2611928;36;20440;-61
2022/06/07 12:04:29;;;;;;;;;;;;;;;20.49;100.00;101178.78;2613286;36;20343;-59
2022/06/07 12:07:08;;;;;;;;;;;;;;;20.63;100.00;101177.88;2604727;36;19958;-64
2022/06/07 12:09:37;;;;;;;;;;;;;;;20.93;100.00;101176.94;2612081;31;19951;-62
2022/06/07 12:20:10;;;;;;;;;;;;;;;21.02;100.00;101174.91;2612482;47;20014;-63
2022/06/07 12:22:43;;;;;;;;;;;;;;;20.84;100.00;101173.47;2616972;36;19966;-62
2022/06/07 12:27:46;;;;;;;;;;;;;;;20.76;100.00;101165.38;2611982;36;20309;-63
2022/06/07 12:32:50;;;;;;;;;;;;;;;20.07;100.00;101164.84;2613009;36;19946;-62
2022/06/07 12:35:23;;;;;;;;;;;;;;;20.97;100.00;101167.28;2613939;36;20337;-69
2022/06/07 12:40:35;;;;;;;;;;;;;;;22.28;100.00;101165.75;2613662;36;19989;-60
2022/06/07 12:43:06;;;;;;;;;;;;;;;21.61;100.00;101165.44;2613907;36;19953;-71
2022/06/07 12:45:37;;;;;;;;;;;;;;;20.85;100.00;101169.72;2613845;54;19947;-64
2022/06/07 12:48:10;;;;;;;;;;;;;;;20.28;100.00;101164.03;2613837;36;19942;-63
2022/06/07 12:53:30;;;;;;;;;;;;;;;20.86;100.00;101171.38;2613702;36;20321;-63
2022/06/07 13:01:33;;;;;;;;;;;;;;;21.69;100.00;101174.34;2613272;36;19985;-63
2022/06/07 13:04:06;;;;;;;;;;;;;;;22.10;100.00;101166.31;2613816;36;19974;-61
2022/06/07 13:09:20;;;;;;;;;;;;;;;22.22;100.00;101164.69;2613162;36;19945;-67
2022/06/07 13:14:29;;;;;;;;;;;;;;;22.09;100.00;101165.47;2615638;36;19950;-62
2022/06/07 13:24:56;;;;;;;;;;;;;;;20.78;100.00;101160.59;2615055;54;19946;-68
2022/06/07 13:27:50;;;;;;;;;;;;;;;21.85;100.00;101150.41;2614067;54;19981;-61
2022/06/07 13:30:26;;;;;;;;;;;;;;;22.74;100.00;101157.63;2625623;31;19974;-61
2022/06/07 13:40:33;;;;;;;;;;;;;;;23.15;100.00;101152.19;2612647;54;19943;-62
2022/06/07 13:45:33;;;;;;;;;;;;;;;21.60;100.00;101159.13;2612506;54;19985;-62
2022/06/07 13:55:45;;;;;;;;;;;;;;;22.71;100.00;101147.06;2612881;54;19953;-58
2022/06/07 14:13:26;;;;;;;;;;;;;;;21.69;100.00;101148.84;2611978;54;19939;-63
2022/06/07 14:50:58;;;;;;;;;;;;;;;22.84;96.04;101139.91;2613008;36;20419;-58
2022/06/07 14:53:27;;;;;;;;;;;;;;;23.11;87.84;101139.94;2614187;54;19961;-58
2022/06/07 14:58:22;;;;;;;;;;;;;;;22.55;94.76;101142.00;2613987;54;19957;-63
2022/06/07 15:00:58;;;;;;;;;;;;;;;21.80;99.46;101137.28;2613685;54;19954;31
2022/06/07 15:03:29;;;;;;;;;;;;;;;22.14;100.00;101143.78;2614048;54;19980;-61
2022/06/07 15:25:12;;;;;;;;;;;;;;;21.94;100.00;101135.47;2612444;54;20171;-58
2022/06/07 15:27:44;;;;;;;;;;;;;;;22.05;100.00;101148.59;2611641;36;19939;-62
2022/06/07 15:30:16;;;;;;;;;;;;;;;22.08;100.00;101136.34;2612336;36;19947;-58
2022/06/07 15:32:44;;;;;;;;;;;;;;;21.51;100.00;101138.44;2617502;36;20439;-58
2022/06/07 15:40:24;;;;;;;;;;;;;;;21.76;100.00;101132.44;2613178;36;19946;-58
2022/06/07 15:42:54;;;;;;;;;;;;;;;21.84;100.00;101127.63;2613605;54;19957;-61
2022/06/07 15:45:24;;;;;;;;;;;;;;;22.35;100.00;101120.88;2611818;36;19946;-58
2022/06/07 15:53:17;;;;;;;;;;;;;;;22.15;100.00;101129.00;2612109;36;20331;-63
2022/06/07 15:55:50;;;;;;;;;;;;;;;22.51;95.78;101130.59;2613605;39;20384;-65
2022/06/07 16:06:01;;;;;;;;;;;;;;;21.78;100.00;101120.22;2612741;39;20446;-64
2022/06/07 16:08:30;;;;;;;;;;;;;;;22.31;100.00;101130.53;2618258;36;20347;-62
2022/06/07 16:11:01;;;;;;;;;;;;;;;21.73;100.00;101124.63;2612895;47;20459;-60
2022/06/07 16:13:29;;;;;;;;;;;;;;;21.24;98.40;101130.00;2612774;47;19946;-60
2022/06/07 16:15:58;;;;;;;;;;;;;;;21.88;100.00;101119.84;2612168;36;19961;-62
2022/06/07 16:18:28;;;;;;;;;;;;;;;21.86;92.61;101117.31;2612645;36;19955;-64
2022/06/07 16:20:57;;;;;;;;;;;;;;;22.65;98.97;101120.47;2613495;36;20418;-62
2022/06/07 16:23:25;;;;;;;;;;;;;;;22.59;86.09;101124.06;2612942;36;20093;-58
2022/06/07 16:25:53;;;;;;;;;;;;;;;22.35;92.25;101131.84;2612664;39;20336;-58
2022/06/07 16:33:48;;;;;;;;;;;;;;;22.84;91.93;101121.53;2611922;54;19950;-62
2022/06/07 16:36:19;;;;;;;;;;;;;;;22.25;95.88;101125.88;2611175;36;19953;-65
2022/06/07 16:38:48;;;;;;;;;;;;;;;21.59;99.61;101131.94;2612578;36;20371;-62
2022/06/07 16:41:17;;;;;;;;;;;;;;;22.35;93.59;101131.84;2612050;36;19951;-58
2022/06/07 16:46:37;;;;;;;;;;;;;;;22.52;94.60;101131.44;2612584;36;20030;-63
2022/06/07 16:54:11;;;;;;;;;;;;;;;22.98;94.45;101129.78;2612686;36;19950;-58
2022/06/07 16:56:40;;;;;;;;;;;;;;;23.17;80.86;101134.41;2611690;36;19953;-63
2022/06/07 16:59:08;;;;;;;;;;;;;;;23.00;93.12;101131.25;2612062;36;19954;-64
2022/06/07 17:01:40;;;;;;;;;;;;;;;22.73;79.68;101134.00;2611262;36;19958;-57
2022/06/07 17:04:08;;;;;;;;;;;;;;;22.93;82.43;101138.63;2613141;36;20741;-60
2022/06/07 17:06:36;;;;;;;;;;;;;;;21.40;93.72;101141.69;2617048;36;19953;-61
2022/06/07 17:11:44;;;;;;;;;;;;;;;21.93;87.40;101132.94;2613738;36;19977;-60
2022/06/07 17:14:13;;;;;;;;;;;;;;;21.72;85.75;101137.50;2612341;36;19951;-58
2022/06/07 17:16:46;;;;;;;;;;;;;;;21.37;91.62;101128.41;2614194;54;20038;-58
2022/06/07 17:19:15;;;;;;;;;;;;;;;22.08;87.74;101130.88;2612864;36;19950;-69
2022/06/07 17:21:45;;;;;;;;;;;;;;;21.77;92.11;101123.16;2613706;54;19947;-61
2022/06/07 17:24:15;;;;;;;;;;;;;;;21.99;85.45;101121.16;2616619;36;20020;-59
2022/06/07 17:31:56;;;;;;;;;;;;;;;21.74;79.96;101137.28;2612789;36;19993;-59
2022/06/07 17:34:24;;;;;;;;;;;;;;;20.96;92.20;101139.06;2614484;31;20037;-58
2022/06/07 17:36:52;;;;;;;;;;;;;;;20.97;95.03;101145.41;2613804;36;19953;-60
2022/06/07 17:39:20;;;;;;;;;;;;;;;19.84;100.00;101126.72;2613336;36;20365;-66
2022/06/07 17:41:50;;;;;;;;;;;;;;;19.69;100.00;101134.09;2613180;36;19947;-68
2022/06/07 17:44:22;;;;;;;;;;;;;;;19.63;100.00;101143.03;2613776;36;19958;-60
2022/06/07 17:46:50;;;;;;;;;;;;;;;19.19;100.00;101140.09;2619670;36;19973;-59
2022/06/07 17:49:21;;;;;;;;;;;;;;;18.78;100.00;101134.13;2613727;54;19950;-59
2022/06/07 17:51:50;;;;;;;;;;;;;;;18.73;100.00;101138.25;2613581;31;21112;-65
2022/06/07 17:54:18;;;;;;;;;;;;;;;18.55;100.00;101138.56;2612074;36;19978;-59
2022/06/07 17:56:47;;;;;;;;;;;;;;;18.26;100.00;101141.16;2616425;36;19957;-61
2022/06/07 18:01:54;;;;;;;;;;;;;;;17.69;100.00;101145.84;2612454;36;19994;-66
2022/06/07 18:04:26;;;;;;;;;;;;;;;17.70;100.00;101136.66;2619280;36;20378;-64
2022/06/07 18:09:35;;;;;;;;;;;;;;;17.59;100.00;101139.75;2610333;36;19946;-60
2022/06/07 18:12:03;;;;;;;;;;;;;;;17.70;100.00;101139.38;2612301;36;20318;-66
2022/06/07 18:14:32;;;;;;;;;;;;;;;17.63;100.00;101141.94;2613600;36;20456;-64
2022/06/07 18:17:00;;;;;;;;;;;;;;;17.72;100.00;101144.63;2613095;36;19973;-59
2022/06/07 18:22:06;;;;;;;;;;;;;;;17.40;100.00;101152.75;2612612;36;19946;-61
2022/06/07 18:27:08;;;;;;;;;;;;;;;17.06;100.00;101148.34;2613396;36;20531;-61
2022/06/07 18:29:36;;;;;;;;;;;;;;;17.12;100.00;101150.41;2612143;36;20002;-60
2022/06/07 18:34:45;;;;;;;;;;;;;;;16.97;100.00;101152.97;2611682;31;20038;-67
2022/06/07 18:37:16;;;;;;;;;;;;;;;16.82;100.00;101150.03;2612084;36;20398;-62
2022/06/07 18:39:45;;;;;;;;;;;;;;;16.59;100.00;101149.88;2611280;36;19951;-60
2022/06/07 18:42:14;;;;;;;;;;;;;;;16.72;100.00;101143.09;2613421;36;19986;-60
2022/06/07 18:47:14;;;;;;;;;;;;;;;16.58;100.00;101139.19;2613016;36;19983;-64
2022/06/07 18:49:43;;;;;;;;;;;;;;;16.35;100.00;101137.09;2604843;36;19946;-58
2022/06/07 18:52:13;;;;;;;;;;;;;;;16.41;100.00;101132.88;2612908;31;19957;-62
2022/06/07 18:57:23;;;;;;;;;;;;;;;16.07;100.00;101134.66;2612637;54;19957;-58
2022/06/07 18:59:52;;;;;;;;;;;;;;;16.13;100.00;101137.75;2612740;36;19978;-59
2022/06/07 19:02:21;;;;;;;;;;;;;;;16.20;100.00;101136.06;2613210;36;20344;-59
2022/06/07 19:04:49;;;;;;;;;;;;;;;16.34;100.00;101140.00;2612491;36;19966;-61
2022/06/07 19:07:18;;;;;;;;;;;;;;;16.19;100.00;101147.94;2612338;36;19978;-65
2022/06/07 19:12:18;;;;;;;;;;;;;;;15.87;100.00;101154.97;2612295;36;19958;-61
2022/06/07 19:14:47;;;;;;;;;;;;;;;15.91;100.00;101145.47;2611777;36;19993;-60
2022/06/07 19:17:15;;;;;;;;;;;;;;;15.98;100.00;101153.84;2612340;36;20446;-58
2022/06/07 19:19:43;;;;;;;;;;;;;;;15.79;100.00;101150.34;2613340;36;20344;-68
2022/06/07 19:22:11;;;;;;;;;;;;;;;15.68;100.00;101150.59;2612902;31;20082;-62
2022/06/07 19:27:21;;;;;;;;;;;;;;;15.52;100.00;101154.09;2611113;31;19959;-60
2022/06/07 19:29:49;;;;;;;;;;;;;;;15.50;100.00;101158.81;2612457;36;19950;-65
2022/06/07 19:32:17;;;;;;;;;;;;;;;15.37;100.00;101153.81;2612424;36;19946;-59
2022/06/07 19:37:24;;;;;;;;;;;;;;;15.34;100.00;101155.03;2612631;36;20328;-59
2022/06/07 19:39:52;;;;;;;;;;;;;;;15.28;100.00;101158.34;2612878;54;19946;-68
2022/06/07 19:50:42;;;;;;;;;;;;;;;15.06;100.00;101162.44;2606490;54;54475;-62
2022/06/07 19:53:12;;;;;;;;;;;;;;;14.74;100.00;101163.91;2611711;36;19950;-60
2022/06/07 19:55:40;;;;;;;;;;;;;;;14.70;100.00;101165.22;2610492;36;19954;-62
2022/06/07 19:58:10;;;;;;;;;;;;;;;14.68;100.00;101162.66;2612879;36;19955;-59
2022/06/07 20:08:41;;;;;;;;;;;;;;;14.48;100.00;101169.19;2613205;39;20265;-61
2022/06/07 21:07:39;;;;;;;;;;;;;;;13.64;100.00;101141.34;2613350;36;19954;-62
2022/06/07 21:10:08;;;;;;;;;;;;;;;13.71;100.00;101149.75;2618668;36;20344;-61
2022/06/07 21:12:37;;;;;;;;;;;;;;;13.62;100.00;101138.81;2612695;31;19957;-59
2022/06/07 21:15:05;;;;;;;;;;;;;;;13.65;100.00;101141.22;2611176;36;19953;-59
2022/06/07 21:17:33;;;;;;;;;;;;;;;13.59;100.00;101131.00;2612058;36;20336;-59
2022/06/07 21:20:02;;;;;;;;;;;;;;;13.49;100.00;101141.00;2612557;31;19954;-59
2022/06/07 21:30:48;;;;;;;;;;;;;;;13.12;100.00;101137.22;2626776;36;20546;-58